Time;durP1;ratioP1;P1;durP2;ratioP2;P2;SDS_P1;SDS_P2;PMS_P1;PMS_P2;Temp;Humidity;BMP_temperature;BMP_pressure;BME280_temperature;BME280_humidity;BME280_pressure;Samples;Min_cycle;Max_cycle;Signal;HPM_P1;HPM_P2
2021/11/09 00:02:05;;;;;;;18.58;8.63;;;8.70;99.90;;;;;;5093529;28;20059;-68
2021/11/09 00:04:38;;;;;;;19.05;9.05;;;8.70;99.90;;;;;;5094574;28;20047;-67
2021/11/09 00:07:23;;;;;;;22.80;9.20;;;8.60;99.90;;;;;;5093296;28;20107;-67
2021/11/09 00:09:58;;;;;;;15.73;9.05;;;8.60;99.90;;;;;;5076363;28;20101;-68
2021/11/09 00:12:28;;;;;;;18.58;8.90;;;8.60;99.90;;;;;;5094232;28;20023;-68
2021/11/09 00:14:57;;;;;;;16.20;8.32;;;8.60;99.90;;;;;;5094279;28;20043;-68
2021/11/09 00:17:23;;;;;;;19.65;9.20;;;8.50;99.90;;;;;;5074891;28;20043;-69
2021/11/09 00:19:49;;;;;;;23.17;9.80;;;8.50;99.90;;;;;;5094099;28;20110;-67
2021/11/09 00:22:15;;;;;;;22.25;8.85;;;8.50;99.90;;;;;;5093374;28;20073;-67
2021/11/09 00:24:41;;;;;;;15.77;8.18;;;8.40;99.90;;;;;;5075734;28;20428;-66
2021/11/09 00:27:06;;;;;;;13.52;8.48;;;8.40;99.90;;;;;;5092981;28;20526;-68
2021/11/09 00:29:32;;;;;;;16.85;9.63;;;8.30;99.90;;;;;;5075602;28;20354;-68
2021/11/09 00:31:58;;;;;;;17.60;9.02;;;8.20;99.90;;;;;;5075662;28;20051;-67
2021/11/09 00:34:24;;;;;;;17.80;9.10;;;8.10;99.90;;;;;;5093520;28;20035;-67
2021/11/09 00:36:50;;;;;;;27.63;10.77;;;8.10;99.90;;;;;;5093723;28;20342;-68
2021/11/09 00:39:16;;;;;;;25.90;10.02;;;8.00;99.90;;;;;;5074975;28;20445;-68
2021/11/09 00:41:41;;;;;;;16.85;8.88;;;7.90;99.90;;;;;;5093289;28;20024;-68
2021/11/09 00:44:07;;;;;;;18.88;9.38;;;7.90;99.90;;;;;;5074783;28;20012;-68
2021/11/09 00:46:33;;;;;;;17.73;8.77;;;8.00;99.90;;;;;;5093616;28;20031;-67
2021/11/09 00:48:59;;;;;;;14.32;9.02;;;8.00;99.90;;;;;;5075173;28;20028;-67
2021/11/09 00:51:25;;;;;;;28.55;9.73;;;7.90;99.90;;;;;;5093389;28;20127;-66
2021/11/09 00:53:51;;;;;;;20.27;9.82;;;7.90;99.90;;;;;;5093536;28;20448;-66
2021/11/09 00:56:17;;;;;;;15.90;9.55;;;7.90;99.90;;;;;;5092681;28;20047;-67
2021/11/09 00:58:43;;;;;;;18.85;9.10;;;7.90;99.90;;;;;;5093466;28;20116;-67
2021/11/09 01:01:08;;;;;;;21.75;8.73;;;7.90;99.90;;;;;;5092680;28;20067;-67
2021/11/09 01:03:34;;;;;;;19.15;9.27;;;7.80;99.90;;;;;;5093282;28;20470;-67
2021/11/09 01:06:01;;;;;;;18.17;9.45;;;7.80;99.90;;;;;;5075058;28;20020;-68
2021/11/09 01:08:27;;;;;;;22.70;8.43;;;7.80;99.90;;;;;;5074935;28;20028;-67
2021/11/09 01:10:54;;;;;;;18.08;9.25;;;7.80;99.90;;;;;;5093309;28;20012;-68
2021/11/09 01:13:25;;;;;;;15.27;8.75;;;7.70;99.90;;;;;;5074190;28;20024;-67
2021/11/09 01:15:52;;;;;;;19.63;8.63;;;7.60;99.90;;;;;;5092328;28;20035;-67
2021/11/09 01:18:27;;;;;;;18.10;10.05;;;7.70;99.90;;;;;;5091006;28;20028;-66
2021/11/09 01:20:53;;;;;;;17.70;9.63;;;7.60;99.90;;;;;;5074883;28;20043;-67
2021/11/09 01:23:20;;;;;;;16.20;9.18;;;7.60;99.90;;;;;;5092246;28;20024;-68
2021/11/09 01:25:47;;;;;;;17.27;9.43;;;7.60;99.90;;;;;;5092541;28;20386;-68
2021/11/09 01:28:13;;;;;;;19.10;9.20;;;7.60;99.90;;;;;;5092017;28;20019;-67
2021/11/09 01:30:40;;;;;;;19.80;9.10;;;7.60;99.90;;;;;;5074177;28;20069;-67
2021/11/09 01:33:06;;;;;;;16.50;8.85;;;7.60;99.90;;;;;;5073967;28;20051;-67
2021/11/09 01:35:32;;;;;;;21.77;10.07;;;7.60;99.90;;;;;;5092309;28;20499;-67
2021/11/09 01:37:58;;;;;;;19.65;10.00;;;7.60;99.90;;;;;;5092498;28;20066;-67
2021/11/09 01:40:25;;;;;;;21.48;9.88;;;7.60;99.90;;;;;;5073678;28;20291;-67
2021/11/09 01:42:53;;;;;;;19.75;8.60;;;7.50;99.90;;;;;;5092330;28;20467;-68
2021/11/09 01:45:19;;;;;;;18.30;8.82;;;7.50;99.90;;;;;;5091710;28;20024;-67
2021/11/09 01:47:45;;;;;;;16.70;9.52;;;7.50;99.90;;;;;;5092816;28;20544;-67
2021/11/09 01:50:15;;;;;;;21.38;8.70;;;7.50;99.90;;;;;;5091883;28;20044;-67
2021/11/09 01:52:40;;;;;;;19.63;10.10;;;7.50;99.90;;;;;;5092455;28;20035;-67
2021/11/09 01:55:11;;;;;;;24.05;9.50;;;7.60;99.90;;;;;;5091810;28;20021;-68
2021/11/09 01:57:38;;;;;;;17.73;10.05;;;7.50;99.90;;;;;;5074090;28;20536;-67
2021/11/09 02:00:10;;;;;;;16.10;9.15;;;7.50;99.90;;;;;;5074034;28;20020;-67
2021/11/09 02:02:35;;;;;;;17.05;8.60;;;7.40;99.90;;;;;;5092336;28;20512;-67
2021/11/09 02:05:01;;;;;;;20.38;10.50;;;7.30;99.90;;;;;;5092004;28;20059;-68
2021/11/09 02:07:27;;;;;;;17.85;8.75;;;7.30;99.90;;;;;;5091318;28;20034;-67
2021/11/09 02:09:53;;;;;;;17.25;9.90;;;7.30;99.90;;;;;;5073994;28;20031;-67
2021/11/09 02:12:18;;;;;;;19.00;9.88;;;7.40;99.90;;;;;;5073287;28;20124;-67
2021/11/09 02:14:44;;;;;;;15.48;9.10;;;7.30;99.90;;;;;;5074011;28;20464;-66
2021/11/09 02:17:10;;;;;;;16.92;9.27;;;7.20;99.90;;;;;;5072908;28;20134;-67
2021/11/09 02:19:36;;;;;;;20.52;9.98;;;7.30;99.90;;;;;;5073444;28;20024;-67
2021/11/09 02:22:02;;;;;;;19.77;9.40;;;7.20;99.90;;;;;;5091696;28;20081;-66
2021/11/09 02:24:28;;;;;;;16.55;9.10;;;7.30;99.90;;;;;;5073240;28;20028;-67
2021/11/09 02:26:54;;;;;;;20.63;9.77;;;7.20;99.90;;;;;;5073830;28;20028;-67
2021/11/09 02:29:19;;;;;;;17.88;10.27;;;7.10;99.90;;;;;;5072918;28;20111;-67
2021/11/09 02:31:45;;;;;;;21.85;10.30;;;7.20;99.90;;;;;;5073876;28;20429;-66
2021/11/09 02:34:11;;;;;;;18.05;9.93;;;7.10;99.90;;;;;;5091298;28;20054;-66
2021/11/09 02:36:37;;;;;;;16.40;9.95;;;7.10;99.90;;;;;;5075054;28;20484;-67
2021/11/09 02:39:03;;;;;;;19.38;10.07;;;7.10;99.90;;;;;;5091870;28;20116;-67
2021/11/09 02:41:28;;;;;;;19.25;8.85;;;7.10;99.90;;;;;;5091457;28;20021;-67
2021/11/09 02:43:57;;;;;;;17.05;9.25;;;7.00;99.90;;;;;;5091866;28;20026;-67
2021/11/09 02:46:32;;;;;;;19.20;9.20;;;6.90;99.90;;;;;;5073173;28;20031;-67
2021/11/09 02:49:27;;;;;;;16.73;9.45;;;6.90;99.90;;;;;;5073726;28;20028;-67
2021/11/09 02:52:23;;;;;;;19.58;11.52;;;6.80;99.90;;;;;;5091132;28;20365;-67
2021/11/09 02:54:44;;;;;;;;;;;6.70;99.90;;;;;;5088651;28;20024;-66
2021/11/09 02:57:34;;;;;;;28.33;9.75;;;6.60;99.90;;;;;;5091065;28;20261;-70
2021/11/09 03:00:15;;;;;;;17.88;10.07;;;6.80;99.90;;;;;;5091669;28;20027;-68
2021/11/09 03:03:30;;;;;;;16.05;9.05;;;6.80;99.90;;;;;;5091382;28;20405;-68
2021/11/09 03:05:43;;;;;;;17.50;8.50;;;6.70;99.90;;;;;;5079992;28;20403;-68
2021/11/09 03:08:42;;;;;;;12.60;8.65;;;6.60;99.90;;;;;;5072778;28;20046;-70
2021/11/09 03:11:04;;;;;;;16.85;9.35;;;6.60;99.90;;;;;;5090828;28;20039;-68
2021/11/09 03:13:30;;;;;;;19.40;8.98;;;6.40;99.90;;;;;;5090695;28;20051;-68
2021/11/09 03:16:02;;;;;;;18.10;9.32;;;6.50;99.90;;;;;;5091199;28;20074;-68
2021/11/09 03:18:29;;;;;;;;;;;6.60;99.90;;;;;;5090852;28;20043;-67
2021/11/09 03:45:21;;;;;;;13.32;8.88;;;6.50;99.90;;;;;;5094218;28;20027;-68
2021/11/09 03:47:51;;;;;;;20.88;8.77;;;6.50;99.90;;;;;;5076337;28;20034;-68
2021/11/09 03:50:18;;;;;;;21.17;8.63;;;6.50;99.90;;;;;;5075674;28;20028;-68
2021/11/09 03:53:10;;;;;;;14.73;8.02;;;6.50;99.90;;;;;;5094616;28;20099;-69
2021/11/09 03:58:11;;;;;;;14.05;8.88;;;6.40;99.90;;;;;;5094335;28;20028;-68
2021/11/09 04:16:48;;;;;;;18.00;9.77;;;6.30;99.90;;;;;;5092968;28;20044;-69
2021/11/09 04:27:30;;;;;;;12.43;8.70;;;6.20;99.90;;;;;;5093889;28;20080;-68
2021/11/09 04:32:49;;;;;;;19.52;8.85;;;6.20;99.90;;;;;;5093060;28;20097;-68
2021/11/09 04:53:25;;;;;;;27.77;8.45;;;6.10;99.90;;;;;;5072887;28;20116;-68
2021/11/09 05:09:56;;;;;;;17.30;8.32;;;6.20;99.90;;;;;;5072790;28;20028;-69
2021/11/09 05:12:22;;;;;;;15.35;8.48;;;6.20;99.90;;;;;;5054104;28;20052;-68
2021/11/09 05:14:49;;;;;;;13.43;8.60;;;6.20;99.90;;;;;;5054468;28;20421;-69
2021/11/09 05:17:16;;;;;;;17.27;9.45;;;6.20;99.90;;;;;;5057783;28;20061;-70
2021/11/09 05:19:41;;;;;;;17.27;8.75;;;6.30;99.90;;;;;;5052449;28;20029;-68
2021/11/09 05:22:07;;;;;;;17.88;8.18;;;6.20;99.90;;;;;;5052090;28;20025;-68
2021/11/09 05:24:33;;;;;;;20.48;10.23;;;6.20;99.90;;;;;;5033816;28;20049;-68
2021/11/09 05:26:58;;;;;;;22.38;9.35;;;6.30;99.90;;;;;;5052280;28;20054;-70
2021/11/09 05:29:24;;;;;;;16.17;9.05;;;6.30;99.90;;;;;;5033593;28;20475;-69
2021/11/09 05:31:56;;;;;;;19.38;9.48;;;6.30;99.90;;;;;;5052217;28;20017;-69
2021/11/09 05:34:26;;;;;;;19.65;9.23;;;6.30;99.90;;;;;;5051597;28;20087;-68
2021/11/09 05:36:52;;;;;;;12.98;7.97;;;6.20;99.90;;;;;;5034157;28;20079;-68
2021/11/09 05:39:30;;;;;;;21.17;9.68;;;6.20;99.90;;;;;;5051760;28;20449;-72
2021/11/09 05:41:56;;;;;;;18.83;8.88;;;6.20;99.90;;;;;;5034315;28;20029;-68
2021/11/09 05:44:21;;;;;;;13.23;8.73;;;6.20;99.90;;;;;;5050972;28;20017;-69
2021/11/09 05:46:47;;;;;;;18.05;9.27;;;6.20;99.90;;;;;;5033912;28;20446;-68
2021/11/09 05:49:13;;;;;;;17.77;9.23;;;6.10;99.90;;;;;;5051889;28;20029;-70
2021/11/09 05:51:39;;;;;;;15.85;8.85;;;6.00;99.90;;;;;;5051267;28;20029;-68
2021/11/09 05:54:05;;;;;;;18.33;9.57;;;5.90;99.90;;;;;;5033565;28;20040;-68
2021/11/09 05:56:31;;;;;;;19.85;9.40;;;5.90;99.90;;;;;;5051278;28;20028;-68
2021/11/09 05:58:58;;;;;;;17.63;8.98;;;5.80;99.90;;;;;;5051754;28;20103;-68
2021/11/09 06:01:24;;;;;;;19.13;9.18;;;5.80;99.90;;;;;;5051004;28;20024;-68
2021/11/09 06:03:50;;;;;;;21.17;9.05;;;5.80;99.90;;;;;;5051471;28;20095;-68
2021/11/09 06:06:16;;;;;;;16.65;7.60;;;5.80;99.90;;;;;;5051238;28;20020;-67
2021/11/09 06:08:42;;;;;;;14.90;7.35;;;5.80;99.90;;;;;;5050920;28;20033;-68
2021/11/09 06:11:08;;;;;;;17.55;8.07;;;5.80;99.90;;;;;;5050986;28;20012;-68
2021/11/09 06:13:34;;;;;;;18.52;8.35;;;5.90;99.90;;;;;;5032800;28;20070;-68
2021/11/09 06:16:00;;;;;;;17.85;8.25;;;6.00;99.90;;;;;;5036578;28;20036;-68
2021/11/09 06:18:25;;;;;;;17.50;8.52;;;6.10;99.90;;;;;;5052260;28;20402;-69
2021/11/09 06:20:51;;;;;;;19.92;8.05;;;6.10;99.90;;;;;;5070867;28;20458;-68
2021/11/09 06:23:17;;;;;;;27.42;9.52;;;6.10;99.90;;;;;;5052711;28;20021;-68
2021/11/09 06:25:44;;;;;;;23.42;9.30;;;6.10;99.90;;;;;;5070565;28;20048;-67
2021/11/09 06:28:12;;;;;;;17.73;7.53;;;6.10;99.90;;;;;;5083481;28;20024;-67
2021/11/09 06:30:38;;;;;;;19.83;7.60;;;6.10;99.90;;;;;;5072270;28;20478;-69
2021/11/09 06:33:03;;;;;;;14.98;7.82;;;6.10;99.90;;;;;;5091352;28;20028;-69
2021/11/09 06:35:29;;;;;;;17.92;7.82;;;6.10;99.90;;;;;;5090309;28;20047;-70
2021/11/09 06:37:55;;;;;;;25.42;8.68;;;6.10;99.90;;;;;;5072980;28;20059;-69
2021/11/09 06:40:22;;;;;;;24.92;8.57;;;6.00;99.90;;;;;;5072525;28;20051;-73
2021/11/09 06:42:48;;;;;;;19.92;8.10;;;6.00;99.90;;;;;;5072525;28;20455;-69
2021/11/09 06:45:14;;;;;;;13.40;7.43;;;6.00;99.90;;;;;;5072676;28;20078;-69
2021/11/09 06:47:41;;;;;;;19.08;8.30;;;6.10;99.90;;;;;;5071764;28;20031;-68
2021/11/09 06:50:08;;;;;;;24.27;8.52;;;6.30;99.90;;;;;;5072433;28;20028;-70
2021/11/09 06:52:34;;;;;;;16.70;6.82;;;6.50;99.90;;;;;;5071594;28;20021;-69
2021/11/09 06:55:00;;;;;;;15.63;6.88;;;6.60;99.90;;;;;;5072391;28;20039;-69
2021/11/09 06:57:25;;;;;;;17.70;7.03;;;6.90;99.90;;;;;;5089982;28;20032;-69
2021/11/09 06:59:52;;;;;;;17.05;7.07;;;7.10;99.90;;;;;;5068725;28;20492;-70
2021/11/09 07:02:19;;;;;;;17.00;7.03;;;7.30;99.90;;;;;;5071862;28;20025;-70
2021/11/09 07:04:45;;;;;;;14.27;7.93;;;7.50;99.90;;;;;;5054957;28;20028;-69
2021/11/09 07:07:11;;;;;;;15.95;8.85;;;7.70;99.90;;;;;;5090027;28;20468;-70
2021/11/09 07:09:37;;;;;;;18.83;8.88;;;7.90;99.90;;;;;;5071921;28;20233;-69
2021/11/09 07:12:03;;;;;;;17.92;7.75;;;8.10;99.90;;;;;;5090905;28;20449;-69
2021/11/09 07:14:29;;;;;;;17.85;7.18;;;8.10;99.90;;;;;;5089971;28;20020;-70
2021/11/09 07:16:55;;;;;;;16.70;8.35;;;8.20;99.90;;;;;;5074188;28;20040;-68
2021/11/09 07:19:21;;;;;;;11.00;6.18;;;8.30;99.90;;;;;;5076254;28;20271;-69
2021/11/09 07:21:48;;;;;;;10.48;5.93;;;8.40;99.90;;;;;;5074071;28;20456;-69
2021/11/09 07:24:14;;;;;;;10.32;5.25;;;8.60;99.90;;;;;;5090587;28;20082;-69
2021/11/09 07:26:40;;;;;;;14.10;5.68;;;8.90;99.90;;;;;;5078760;28;20032;-69
2021/11/09 07:29:05;;;;;;;12.48;6.18;;;9.20;99.90;;;;;;5062436;28;21192;-70
2021/11/09 07:31:32;;;;;;;14.55;5.65;;;9.80;99.90;;;;;;5062352;28;20027;-68
2021/11/09 07:33:59;;;;;;;11.18;5.63;;;10.20;99.90;;;;;;5071819;28;20365;-69
2021/11/09 07:36:25;;;;;;;20.60;6.35;;;10.30;99.90;;;;;;5078953;28;20373;-69
2021/11/09 07:38:51;;;;;;;14.98;5.60;;;10.40;99.90;;;;;;5064108;28;20020;-73
2021/11/09 07:41:17;;;;;;;23.38;6.18;;;9.90;99.90;;;;;;5078381;28;20036;-70
2021/11/09 07:43:43;;;;;;;15.88;5.82;;;10.40;99.90;;;;;;5067989;28;20415;-70
2021/11/09 07:46:09;;;;;;;10.52;4.57;;;10.70;99.90;;;;;;5069162;28;20393;-63
2021/11/09 07:48:36;;;;;;;17.77;7.00;;;10.80;99.90;;;;;;5073597;28;20047;-64
2021/11/09 07:51:02;;;;;;;11.15;5.45;;;11.40;99.90;;;;;;5086161;28;20043;-70
2021/11/09 07:53:30;;;;;;;12.65;4.97;;;10.90;99.90;;;;;;5085256;28;20016;-68
2021/11/09 07:59:29;;;;;;;9.23;4.45;;;11.30;99.90;;;;;;5080107;28;20048;-50
2021/11/09 08:01:33;;;;;;;23.77;4.80;;;13.90;99.90;;;;;;5082623;28;20032;-50
2021/11/09 08:06:27;;;;;;;14.48;6.18;;;13.10;99.90;;;;;;5073794;28;20407;-74
2021/11/09 08:11:51;;;;;;;14.88;5.18;;;14.00;99.90;;;;;;5043363;28;20061;-68
2021/11/09 08:14:18;;;;;;;9.57;4.60;;;14.30;99.90;;;;;;5074598;28;20032;-69
2021/11/09 08:16:44;;;;;;;12.95;5.63;;;13.50;99.90;;;;;;5074402;28;20048;-69
2021/11/09 08:19:11;;;;;;;8.98;5.28;;;12.50;99.90;;;;;;5078446;28;20466;-68
2021/11/09 08:21:37;;;;;;;10.07;5.13;;;12.80;99.90;;;;;;5077548;28;20040;-70
2021/11/09 08:24:04;;;;;;;7.53;4.88;;;13.20;99.90;;;;;;5074039;28;20113;-72
2021/11/09 08:26:30;;;;;;;15.35;5.57;;;13.40;99.90;;;;;;5059087;28;20024;-68
2021/11/09 08:29:00;;;;;;;10.50;5.22;;;13.80;99.90;;;;;;5063831;28;20031;-71
2021/11/09 08:31:26;;;;;;;9.93;5.40;;;14.30;99.90;;;;;;5068619;28;20029;-75
2021/11/09 08:33:54;;;;;;;10.57;5.15;;;14.40;99.90;;;;;;5070971;28;20036;-69
2021/11/09 08:36:24;;;;;;;12.35;5.13;;;14.50;99.90;;;;;;5072794;28;20112;-71
2021/11/09 08:38:51;;;;;;;10.23;5.43;;;15.20;99.90;;;;;;5075174;28;20486;-70
2021/11/09 08:41:18;;;;;;;9.88;4.60;;;15.40;99.80;;;;;;5069734;28;20443;-72
2021/11/09 08:43:58;;;;;;;10.95;5.00;;;15.60;98.60;;;;;;5075870;28;20024;-70
2021/11/09 08:46:25;;;;;;;12.50;5.88;;;15.60;97.30;;;;;;5088518;28;20115;-66
2021/11/09 08:48:53;;;;;;;9.18;4.45;;;15.50;99.90;;;;;;5060319;28;20345;-67
2021/11/09 08:51:21;;;;;;;9.07;4.85;;;16.10;99.90;;;;;;5062020;28;20051;-69
2021/11/09 08:53:57;;;;;;;11.57;4.40;;;16.90;99.20;;;;;;5072658;28;20032;-69
2021/11/09 09:01:05;;;;;;;11.88;4.55;;;17.30;98.40;;;;;;5071361;28;20028;-73
2021/11/09 09:04:23;;;;;;;18.75;6.63;;;15.50;96.20;;;;;;5071818;28;20042;-69
2021/11/09 09:06:55;;;;;;;10.00;4.90;;;15.40;97.20;;;;;;5071823;28;20033;-71
2021/11/09 09:09:21;;;;;;;11.68;5.50;;;15.70;96.40;;;;;;5072382;28;20036;-72
2021/11/09 09:11:48;;;;;;;13.75;6.57;;;16.20;96.40;;;;;;5083226;28;20203;-71
2021/11/09 09:14:15;;;;;;;16.08;5.78;;;15.30;96.40;;;;;;5055094;28;20458;-71
2021/11/09 09:16:45;;;;;;;15.50;6.13;;;15.00;97.30;;;;;;5054022;28;20166;-72
2021/11/09 09:19:13;;;;;;;9.87;5.47;;;15.40;98.00;;;;;;5074650;28;20033;-70
2021/11/09 09:21:43;;;;;;;15.13;5.75;;;15.90;97.00;;;;;;5087695;28;20108;-71
2021/11/09 09:24:25;;;;;;;11.05;6.55;;;15.90;96.00;;;;;;5060669;28;20048;-72
2021/11/09 09:27:05;;;;;;;11.52;5.90;;;16.00;96.00;;;;;;5081680;28;20134;-72
2021/11/09 09:56:15;;;;;;;12.35;5.85;;;17.80;92.30;;;;;;5091683;28;20020;-69
2021/11/09 09:58:41;;;;;;;15.52;6.57;;;17.30;93.10;;;;;;5072578;28;20422;-70
2021/11/09 10:01:08;;;;;;;12.02;4.57;;;17.90;92.40;;;;;;5091454;28;20102;-67
2021/11/09 10:03:36;;;;;;;10.18;4.70;;;19.10;96.80;;;;;;5058880;28;20147;-68
2021/11/09 10:06:04;;;;;;;15.52;4.20;;;20.20;95.10;;;;;;5070071;28;20029;-69
2021/11/09 10:08:49;;;;;;;14.63;4.95;;;20.90;94.70;;;;;;5053382;28;20421;-67
2021/11/09 10:11:39;;;;;;;10.23;5.50;;;21.30;90.20;;;;;;5067476;28;20031;-69
2021/11/09 10:14:06;;;;;;;12.35;5.88;;;19.90;86.10;;;;;;5074179;28;20024;-71
2021/11/09 10:16:38;;;;;;;12.15;5.53;;;19.50;88.60;;;;;;5052678;28;20056;-70
2021/11/09 10:19:04;;;;;;;12.32;5.72;;;20.10;89.30;;;;;;5072343;28;20033;-69
2021/11/09 10:21:41;;;;;;;13.32;6.82;;;20.20;88.00;;;;;;5087410;28;20032;-69
2021/11/09 10:24:29;;;;;;;12.13;5.78;;;20.40;85.80;;;;;;5091433;28;20024;-68
2021/11/09 10:27:09;;;;;;;10.70;6.05;;;20.70;85.10;;;;;;5090659;28;20016;-69
2021/11/09 10:29:43;;;;;;;10.40;5.75;;;19.70;86.10;;;;;;5065658;28;20024;-69
2021/11/09 10:32:15;;;;;;;11.88;5.28;;;20.10;88.20;;;;;;5053080;28;20025;-69
2021/11/09 10:34:41;;;;;;;9.18;5.38;;;20.50;84.80;;;;;;5052405;28;20048;-69
2021/11/09 10:37:23;;;;;;;10.00;4.70;;;19.20;88.40;;;;;;5075773;28;20036;-70
2021/11/09 10:39:51;;;;;;;13.52;5.85;;;20.00;88.60;;;;;;5091038;28;20028;-69
2021/11/09 10:42:20;;;;;;;13.05;5.40;;;20.20;86.10;;;;;;5069851;28;20466;-70
2021/11/09 10:45:02;;;;;;;11.90;5.70;;;20.50;84.50;;;;;;5070285;28;20052;-69
2021/11/09 10:47:33;;;;;;;11.30;5.40;;;20.40;85.10;;;;;;5052520;28;20039;-69
2021/11/09 10:50:10;;;;;;;9.23;4.97;;;21.10;83.50;;;;;;5071603;28;20110;-69
2021/11/09 10:52:39;;;;;;;10.90;5.47;;;21.00;82.20;;;;;;5074374;28;20093;-69
2021/11/09 10:55:14;;;;;;;10.60;5.05;;;20.10;81.40;;;;;;5075258;28;20021;-69
2021/11/09 10:57:49;;;;;;;15.63;5.53;;;19.80;83.60;;;;;;5074338;28;20087;-70
2021/11/09 11:03:29;;;;;;;11.13;5.30;;;21.00;81.60;;;;;;5074777;28;20209;-68
2021/11/09 11:06:22;;;;;;;12.40;5.88;;;20.50;81.90;;;;;;5074108;28;20028;-69
2021/11/09 11:08:50;;;;;;;10.70;5.72;;;20.40;81.40;;;;;;5033824;28;20044;-69
2021/11/09 11:11:20;;;;;;;12.27;5.20;;;19.80;82.70;;;;;;5079206;28;20370;-69
2021/11/09 11:13:47;;;;;;;10.65;5.70;;;20.00;83.60;;;;;;5075828;28;20429;-70
2021/11/09 11:16:16;;;;;;;10.73;5.35;;;20.50;82.00;;;;;;5094625;28;20047;-69
2021/11/09 11:18:45;;;;;;;12.43;4.80;;;20.00;81.60;;;;;;5072726;28;20450;-69
2021/11/09 11:21:14;;;;;;;9.45;4.78;;;21.10;82.00;;;;;;5076454;28;20124;-69
2021/11/09 11:23:41;;;;;;;11.90;4.28;;;21.40;80.40;;;;;;5094216;28;20412;-68
2021/11/09 11:26:08;;;;;;;11.10;5.65;;;21.00;84.30;;;;;;5075715;28;20465;-69
2021/11/09 11:28:37;;;;;;;12.50;5.65;;;22.00;80.90;;;;;;5094670;28;20059;-69
2021/11/09 11:31:05;;;;;;;9.65;5.60;;;21.70;78.70;;;;;;5094980;28;20115;-69
2021/11/09 11:33:31;;;;;;;11.75;5.10;;;21.80;78.00;;;;;;5094855;28;20032;-70
2021/11/09 11:35:57;;;;;;;11.32;4.53;;;22.10;77.50;;;;;;5068862;28;20595;-69
2021/11/09 11:38:23;;;;;;;8.85;4.38;;;22.50;76.50;;;;;;5055625;28;20031;-70
2021/11/09 11:40:53;;;;;;;9.88;4.28;;;21.90;76.40;;;;;;5059786;28;20473;-69
2021/11/09 11:43:58;;;;;;;12.48;5.32;;;20.80;78.00;;;;;;5082194;28;20112;-70
2021/11/09 11:46:32;;;;;;;7.78;3.35;;;21.50;76.50;;;;;;4991864;28;20030;-69
2021/11/09 11:49:03;;;;;;;6.68;3.67;;;20.90;74.50;;;;;;5000889;28;20041;-69
2021/11/09 11:51:33;;;;;;;7.93;3.90;;;20.40;75.10;;;;;;5011240;28;20078;-69
2021/11/09 11:53:59;;;;;;;10.60;4.38;;;20.10;76.20;;;;;;5010609;28;20033;-69
2021/11/09 11:56:43;;;;;;;9.32;3.75;;;20.20;76.90;;;;;;5011936;28;20319;-68
2021/11/09 11:59:24;;;;;;;10.35;3.67;;;20.00;76.40;;;;;;5011115;28;20046;-69
2021/11/09 12:01:56;;;;;;;12.95;4.05;;;20.40;75.90;;;;;;4990488;28;20479;-68
2021/11/09 12:04:40;;;;;;;7.00;4.18;;;19.70;75.60;;;;;;4993797;28;20084;-70
2021/11/09 12:07:07;;;;;;;9.20;3.35;;;19.60;77.70;;;;;;4994452;28;20026;-69
2021/11/09 12:09:35;;;;;;;12.75;3.97;;;19.70;77.70;;;;;;5010398;28;20038;-69
2021/11/09 12:12:19;;;;;;;8.30;3.67;;;19.60;76.60;;;;;;5009378;28;20116;-69
2021/11/09 12:14:56;;;;;;;7.43;3.78;;;19.50;77.10;;;;;;5010058;28;20088;-69
2021/11/09 12:17:35;;;;;;;5.25;3.10;;;19.70;74.50;;;;;;5057083;28;20040;-70
2021/11/09 12:20:05;;;;;;;5.15;2.40;;;18.40;75.50;;;;;;5073773;28;20032;-69
2021/11/09 12:22:50;;;;;;;5.07;2.30;;;18.50;73.70;;;;;;5074123;28;20088;-69
2021/11/09 12:25:16;;;;;;;3.45;1.60;;;18.30;74.70;;;;;;5092611;28;20031;-69
2021/11/09 12:27:52;;;;;;;6.15;1.88;;;17.10;72.80;;;;;;5091727;28;20063;-70
2021/11/09 12:30:44;;;;;;;3.83;1.70;;;17.60;72.70;;;;;;5071718;28;20350;-68
2021/11/09 12:33:16;;;;;;;;;;;18.20;73.80;;;;;;5068469;28;20178;-69
2021/11/09 12:36:02;;;;;;;6.97;2.00;;;19.20;71.50;;;;;;5073125;28;19977;-69
2021/11/09 12:38:35;;;;;;;27.10;3.35;;;19.20;73.00;;;;;;5088233;28;20446;-70
2021/11/09 12:41:18;;;;;;;12.38;2.67;;;20.20;72.80;;;;;;5071473;28;20110;-68
2021/11/09 12:43:53;;;;;;;6.18;3.10;;;20.50;72.30;;;;;;5069368;28;20024;-68
2021/11/09 12:46:23;;;;;;;9.55;2.90;;;21.10;70.50;;;;;;5092273;28;20433;-69
2021/11/09 12:48:55;;;;;;;5.78;2.58;;;20.60;71.90;;;;;;5073410;28;20032;-69
2021/11/09 12:51:28;;;;;;;8.40;3.22;;;21.20;72.10;;;;;;5091939;28;20024;-68
2021/11/09 12:53:56;;;;;;;5.28;1.73;;;21.20;71.20;;;;;;5091394;28;20020;-69
2021/11/09 12:56:33;;;;;;;12.43;2.33;;;21.90;69.30;;;;;;5091806;28;20039;-69
2021/11/09 12:59:06;;;;;;;7.50;2.00;;;21.70;67.40;;;;;;5091390;28;20287;-69
2021/11/09 13:04:23;;;;;;;7.15;2.35;;;19.40;71.00;;;;;;5092218;28;20019;-68
2021/11/09 13:07:19;;;;;;;3.20;1.92;;;18.70;73.90;;;;;;5091687;28;20028;-69
2021/11/09 13:09:47;;;;;;;11.30;2.50;;;19.20;75.10;;;;;;5091874;28;20028;-68
2021/11/09 13:12:16;;;;;;;13.10;3.38;;;20.40;71.90;;;;;;5077828;28;20025;-69
2021/11/09 13:14:46;;;;;;;7.38;3.38;;;21.30;71.50;;;;;;5071179;28;20016;-68
2021/11/09 13:17:34;;;;;;;3.55;2.17;;;21.30;70.50;;;;;;5053425;28;20040;-69
2021/11/09 13:20:48;;;;;;;5.43;2.35;;;21.00;69.70;;;;;;5054498;28;20461;-69
2021/11/09 13:23:08;;;;;;;9.32;2.53;;;21.00;70.10;;;;;;5088230;28;20031;-68
2021/11/09 13:25:39;;;;;;;30.83;3.40;;;21.50;70.50;;;;;;5092380;28;20463;-69
2021/11/09 13:28:26;;;;;;;11.18;3.05;;;22.00;70.30;;;;;;5092143;28;20089;-68
2021/11/09 13:31:02;;;;;;;4.90;2.10;;;22.30;69.10;;;;;;5072370;28;20032;-69
2021/11/09 13:33:31;;;;;;;8.93;2.50;;;22.20;70.00;;;;;;5078862;28;20042;-68
2021/11/09 13:35:58;;;;;;;20.08;3.67;;;22.30;68.00;;;;;;5053162;28;20021;-68
2021/11/09 13:38:42;;;;;;;7.47;2.53;;;21.90;69.20;;;;;;5053690;28;20211;-68
2021/11/09 13:41:17;;;;;;;4.90;2.20;;;22.70;68.80;;;;;;5071517;28;20096;-69
2021/11/09 13:43:51;;;;;;;6.82;3.10;;;22.40;67.20;;;;;;5052875;28;20041;-67
2021/11/09 13:46:27;;;;;;;8.65;2.70;;;21.80;68.00;;;;;;5079557;28;20030;-68
2021/11/09 13:48:56;;;;;;;8.70;2.20;;;21.90;69.10;;;;;;5072539;28;20081;-68
2021/11/09 13:51:25;;;;;;;4.00;1.50;;;21.80;66.30;;;;;;5072649;28;20016;-68
2021/11/09 13:54:04;;;;;;;3.50;1.55;;;20.90;66.70;;;;;;5072739;28;20023;-68
2021/11/09 13:56:31;;;;;;;4.93;2.63;;;21.10;66.60;;;;;;5091792;28;20335;-68
2021/11/09 13:59:06;;;;;;;8.85;1.60;;;21.10;66.40;;;;;;5090737;28;20110;-67
2021/11/09 14:02:14;;;;;;;3.50;0.98;;;20.70;65.70;;;;;;5073058;28;20034;-67
2021/11/09 14:13:24;;;;;;;5.25;1.63;;;18.70;67.50;;;;;;5072997;28;20177;-69
2021/11/09 14:18:32;;;;;;;14.98;1.95;;;19.50;66.50;;;;;;5070560;28;20036;-68
2021/11/09 14:21:01;;;;;;;9.25;2.22;;;18.70;67.90;;;;;;5071311;28;20165;-72
2021/11/09 14:23:53;;;;;;;6.55;2.60;;;19.40;81.50;;;;;;5053352;28;20443;-71
2021/11/09 14:26:26;;;;;;;6.38;1.50;;;18.80;78.80;;;;;;5082928;28;20040;-67
2021/11/09 14:28:55;;;;;;;5.78;1.48;;;18.50;70.20;;;;;;5072457;28;20028;-67
2021/11/09 14:31:25;;;;;;;4.43;1.27;;;17.90;69.50;;;;;;5073112;28;20035;-67
2021/11/09 14:33:52;;;;;;;3.28;0.80;;;17.40;69.90;;;;;;5072529;28;20024;-67
2021/11/09 14:36:31;;;;;;;6.57;1.83;;;17.40;71.10;;;;;;5090967;28;20138;-67
2021/11/09 14:39:27;;;;;;;2.60;1.10;;;17.20;71.50;;;;;;5090668;28;20351;-67
2021/11/09 14:47:53;;;;;;;4.32;1.30;;;15.40;75.20;;;;;;5059174;28;20067;-69
2021/11/09 14:53:19;;;;;;;6.18;1.63;;;15.20;76.20;;;;;;5090272;28;20107;-68
2021/11/09 14:55:52;;;;;;;3.83;1.92;;;15.00;77.20;;;;;;5072314;28;20337;-68
2021/11/09 14:58:32;;;;;;;3.13;1.02;;;15.50;76.60;;;;;;5072957;28;20024;-68
2021/11/09 15:01:20;;;;;;;3.75;1.45;;;15.20;77.00;;;;;;5069732;28;20078;-67
2021/11/09 15:04:03;;;;;;;19.55;3.50;;;15.10;77.10;;;;;;5052267;28;20584;-68
2021/11/09 15:09:08;;;;;;;20.63;2.88;;;15.20;77.90;;;;;;5069914;28;20059;-68
2021/11/09 15:11:46;;;;;;;15.45;1.92;;;14.60;78.20;;;;;;5070767;28;20024;-68
2021/11/09 15:30:25;;;;;;;6.05;1.90;;;13.90;81.60;;;;;;5090401;28;20108;-69
2021/11/09 15:32:52;;;;;;;23.33;3.72;;;13.90;82.10;;;;;;5071482;28;20519;-69
2021/11/09 15:35:39;;;;;;;11.57;2.58;;;14.00;83.10;;;;;;5090493;28;20024;-69
2021/11/09 15:38:05;;;;;;;6.32;2.50;;;13.80;82.30;;;;;;5090637;28;20050;-68
2021/11/09 15:40:31;;;;;;;7.93;2.03;;;13.30;83.60;;;;;;5075979;28;20019;-68
2021/11/09 15:42:57;;;;;;;5.43;2.45;;;13.30;83.90;;;;;;5084720;28;20031;-69
2021/11/09 15:45:22;;;;;;;5.15;2.17;;;13.20;84.30;;;;;;5093800;28;20023;-68
2021/11/09 15:47:48;;;;;;;7.15;2.40;;;12.70;85.40;;;;;;5074626;28;20441;-70
2021/11/09 15:50:14;;;;;;;11.00;3.08;;;12.60;85.80;;;;;;5093720;28;20024;-68
2021/11/09 15:52:40;;;;;;;3.28;1.98;;;12.60;86.70;;;;;;5094311;28;20020;-67
2021/11/09 15:55:08;;;;;;;3.60;2.22;;;12.50;87.40;;;;;;5074632;28;20035;-68